createdAt,value
2018-11-12T00:01:57.130Z,12.01
2018-11-12T00:04:30.593Z,11.90
2018-11-12T00:07:01.085Z,11.86
2018-11-12T00:09:30.515Z,11.17
2018-11-12T00:12:00.221Z,11.88
2018-11-12T00:14:34.382Z,8.97
2018-11-12T00:17:02.977Z,11.75
2018-11-12T00:19:32.034Z,11.58
2018-11-12T00:22:02.260Z,11.45
2018-11-12T00:24:32.073Z,11.37
2018-11-12T00:27:02.279Z,11.68
2018-11-12T00:29:32.719Z,11.39
2018-11-12T00:32:02.391Z,11.55
2018-11-12T00:34:31.273Z,11.31
2018-11-12T00:37:02.948Z,11.33
2018-11-12T00:39:32.900Z,11.30
2018-11-12T00:42:02.360Z,11.30
2018-11-12T00:44:32.329Z,11.21
2018-11-12T00:47:02.576Z,-1.89
2018-11-12T00:49:32.820Z,11.31
2018-11-12T00:52:03.233Z,11.36
2018-11-12T00:54:33.215Z,11.33
2018-11-12T00:57:04.658Z,11.46
2018-11-12T00:59:35.036Z,11.45
2018-11-12T01:02:04.908Z,11.40
2018-11-12T01:04:35.045Z,11.37
2018-11-12T01:09:40.867Z,11.52
2018-11-12T01:12:11.693Z,11.41
2018-11-12T01:14:43.913Z,11.50
2018-11-12T01:17:12.456Z,11.68
2018-11-12T01:19:42.308Z,11.35
2018-11-12T01:22:11.515Z,11.53
2018-11-12T01:24:40.627Z,11.44
2018-11-12T01:27:10.719Z,11.56
2018-11-12T01:29:40.455Z,11.58
2018-11-12T01:32:10.854Z,11.59
2018-11-12T01:34:40.441Z,11.61
2018-11-12T01:37:09.948Z,11.96
2018-11-12T01:39:40.969Z,11.94
2018-11-12T01:42:13.978Z,11.95
2018-11-12T01:44:44.153Z,11.94
2018-11-12T01:47:16.099Z,12.04
2018-11-12T01:49:45.174Z,10.88
2018-11-12T01:52:14.595Z,12.37
2018-11-12T01:54:43.957Z,13.21
2018-11-12T01:57:13.486Z,13.58
2018-11-12T01:59:42.444Z,13.83
2018-11-12T02:02:12.933Z,13.66
2018-11-12T02:04:42.283Z,13.29
2018-11-12T02:07:12.225Z,1.39
2018-11-12T02:09:41.048Z,12.29
2018-11-12T02:12:09.884Z,12.21
2018-11-12T02:14:41.220Z,11.97
2018-11-12T02:17:11.637Z,11.76
2018-11-12T02:19:41.684Z,11.64
2018-11-12T02:22:11.323Z,11.63
2018-11-12T02:24:41.405Z,11.62
2018-11-12T02:27:11.082Z,11.64
2018-11-12T02:29:40.486Z,11.40
2018-11-12T02:32:09.847Z,11.35
2018-11-12T02:34:41.104Z,11.42
2018-11-12T02:37:11.256Z,11.54
2018-11-12T02:39:40.949Z,11.57
2018-11-12T02:42:11.291Z,11.65
2018-11-12T02:44:41.899Z,11.70
2018-11-12T02:47:12.409Z,11.70
2018-11-12T02:49:42.986Z,11.72
2018-11-12T02:52:12.063Z,11.62
2018-11-12T02:54:41.597Z,11.38
2018-11-12T02:57:13.227Z,11.45
2018-11-12T02:59:43.788Z,11.20
2018-11-12T03:02:15.020Z,11.21
2018-11-12T03:04:44.608Z,11.19
2018-11-12T03:07:14.120Z,11.34
2018-11-12T03:09:44.232Z,11.39
2018-11-12T03:12:14.080Z,11.34
2018-11-12T03:14:43.705Z,11.45
2018-11-12T03:17:14.199Z,11.26
2018-11-12T03:19:46.902Z,11.06
2018-11-12T03:22:18.411Z,11.20
2018-11-12T03:25:03.244Z,11.21
2018-11-12T03:27:31.911Z,11.23
2018-11-12T03:30:01.474Z,11.15
2018-11-12T03:32:32.457Z,11.16
2018-11-12T03:35:01.059Z,11.12
2018-11-12T03:37:31.611Z,11.36
2018-11-12T03:40:02.281Z,11.22
2018-11-12T03:42:31.292Z,11.04
2018-11-12T03:44:59.818Z,11.25
2018-11-12T03:47:29.344Z,11.17
2018-11-12T03:49:58.904Z,11.09
2018-11-12T03:52:28.487Z,11.08
2018-11-12T03:54:57.023Z,11.25
2018-11-12T03:57:25.611Z,11.40
2018-11-12T03:59:56.184Z,11.38
2018-11-12T04:02:27.780Z,11.46
2018-11-12T04:04:57.622Z,12.00
2018-11-12T04:07:28.553Z,12.20
2018-11-12T04:09:58.057Z,11.96
2018-11-12T04:12:27.580Z,12.26
2018-11-12T04:14:57.651Z,12.28
2018-11-12T04:17:28.653Z,12.39
2018-11-12T04:20:00.287Z,11.97
2018-11-12T04:22:32.947Z,11.44
2018-11-12T04:25:03.386Z,11.12
2018-11-12T04:27:33.896Z,11.05
2018-11-12T04:30:06.188Z,11.12
2018-11-12T04:32:35.257Z,10.88
2018-11-12T04:35:06.015Z,10.96
2018-11-12T04:37:38.117Z,11.22
2018-11-12T04:40:11.042Z,11.10
2018-11-12T04:42:40.637Z,10.89
2018-11-12T04:45:12.493Z,11.32
2018-11-12T04:47:41.870Z,11.78
2018-11-12T04:50:13.498Z,11.52
2018-11-12T04:52:42.470Z,11.81
2018-11-12T04:55:13.145Z,12.60
2018-11-12T04:57:45.548Z,12.84
2018-11-12T05:00:21.553Z,12.34
2018-11-12T05:02:50.196Z,12.31
2018-11-12T05:05:20.956Z,11.61
2018-11-12T05:07:49.487Z,11.23
2018-11-12T05:10:20.552Z,11.12
2018-11-12T05:12:50.968Z,11.01
2018-11-12T05:15:22.542Z,10.93
2018-11-12T05:17:51.657Z,10.59
2018-11-12T05:20:22.410Z,11.30
2018-11-12T05:22:53.275Z,11.14
2018-11-12T05:25:22.995Z,11.42
2018-11-12T05:27:53.335Z,11.17
2018-11-12T05:30:24.911Z,11.17
2018-11-12T05:32:53.612Z,11.23
2018-11-12T05:35:23.546Z,11.44
2018-11-12T05:37:53.669Z,12.32
2018-11-12T05:40:29.181Z,12.49
2018-11-12T05:42:57.956Z,12.40
2018-11-12T05:45:28.938Z,13.01
2018-11-12T05:47:57.783Z,12.18
2018-11-12T05:50:28.960Z,11.74
2018-11-12T05:52:59.152Z,11.74
2018-11-12T05:55:29.467Z,11.66
2018-11-12T05:57:58.528Z,11.31
2018-11-12T06:00:29.284Z,11.31
2018-11-12T06:02:59.411Z,11.19
2018-11-12T06:05:29.789Z,11.14
2018-11-12T06:07:58.530Z,11.26
2018-11-12T06:10:29.331Z,11.64
2018-11-12T06:13:00.211Z,12.15
2018-11-12T06:15:29.195Z,12.61
2018-11-12T06:17:59.098Z,12.89
2018-11-12T06:20:29.797Z,13.16
2018-11-12T06:22:58.814Z,13.18
2018-11-12T06:25:53.515Z,12.47
2018-11-12T06:28:25.843Z,12.27
2018-11-12T06:30:55.218Z,11.44
2018-11-12T06:33:25.813Z,11.30
2018-11-12T06:35:55.209Z,11.44
2018-11-12T06:38:24.272Z,11.01
2018-11-12T06:40:54.307Z,11.22
2018-11-12T06:43:23.802Z,11.43
2018-11-12T06:45:53.601Z,11.09
2018-11-12T06:48:22.889Z,10.95
2018-11-12T06:50:52.384Z,11.20
2018-11-12T06:53:21.096Z,11.43
2018-11-12T06:55:51.609Z,11.62
2018-11-12T06:58:21.637Z,11.45
2018-11-12T07:00:53.266Z,11.25
2018-11-12T07:03:22.839Z,10.69
2018-11-12T07:05:53.483Z,11.11
2018-11-12T07:08:23.448Z,11.23
2018-11-12T07:10:52.977Z,11.20
2018-11-12T07:13:23.422Z,11.10
2018-11-12T07:15:52.135Z,11.01
2018-11-12T07:18:21.185Z,11.07
2018-11-12T07:20:49.708Z,11.20
2018-11-12T07:23:19.159Z,11.18
2018-11-12T07:25:48.343Z,11.14
2018-11-12T07:28:18.345Z,11.23
2018-11-12T07:30:48.461Z,11.20
2018-11-12T07:33:17.530Z,11.20
2018-11-12T07:35:48.366Z,11.37
2018-11-12T07:38:18.053Z,11.36
2018-11-12T07:40:46.594Z,11.49
2018-11-12T07:43:15.760Z,11.64
2018-11-12T07:45:45.698Z,12.00
2018-11-12T07:48:14.953Z,11.94
2018-11-12T07:50:45.352Z,12.19
2018-11-12T07:53:25.867Z,12.16
2018-11-12T07:55:55.485Z,12.30
2018-11-12T07:58:27.316Z,12.48
2018-11-12T08:00:56.528Z,12.28
2018-11-12T08:03:25.728Z,12.76
2018-11-12T08:05:55.437Z,12.61
2018-11-12T08:08:24.844Z,12.61
2018-11-12T08:10:55.539Z,12.88
2018-11-12T08:13:24.818Z,12.73
2018-11-12T08:15:54.383Z,12.97
2018-11-12T08:18:23.746Z,13.10
2018-11-12T08:20:52.747Z,13.20
2018-11-12T08:23:25.069Z,13.54
2018-11-12T08:25:54.641Z,13.57
2018-11-12T08:28:24.273Z,13.78
2018-11-12T08:30:52.842Z,14.46
2018-11-12T08:33:22.805Z,15.04
2018-11-12T08:35:53.852Z,14.56
2018-11-12T08:38:23.739Z,15.59
2018-11-12T08:40:54.634Z,15.47
2018-11-12T08:43:23.564Z,15.87
2018-11-12T08:45:53.340Z,14.97
2018-11-12T08:48:29.403Z,14.54
2018-11-12T08:51:00.367Z,15.26
2018-11-12T08:53:30.392Z,15.32
2018-11-12T08:55:59.677Z,14.99
2018-11-12T08:58:29.497Z,14.95
2018-11-12T09:00:59.700Z,15.43
2018-11-12T09:03:29.826Z,15.71
2018-11-12T09:06:00.664Z,15.07
2018-11-12T09:08:30.219Z,14.51
2018-11-12T09:13:27.128Z,15.14
2018-11-12T09:15:56.168Z,15.08
2018-11-12T09:18:25.481Z,14.89
2018-11-12T09:20:55.540Z,15.16
2018-11-12T09:23:25.556Z,15.01
2018-11-12T09:25:54.321Z,14.95
2018-11-12T09:28:25.411Z,15.03
2018-11-12T09:30:57.071Z,14.97
2018-11-12T09:33:25.865Z,14.84
2018-11-12T09:35:54.656Z,14.92
2018-11-12T09:38:24.015Z,15.07
2018-11-12T09:41:08.165Z,15.15
2018-11-12T09:43:37.792Z,15.05
2018-11-12T09:46:06.679Z,15.08
2018-11-12T09:48:37.923Z,15.09
2018-11-12T09:51:06.972Z,15.03
2018-11-12T09:53:38.995Z,12.66
2018-11-12T09:56:08.089Z,15.18
2018-11-12T09:58:37.481Z,15.22
2018-11-12T10:01:07.707Z,15.06
2018-11-12T10:03:38.231Z,15.15
2018-11-12T10:06:06.727Z,15.11
2018-11-12T10:08:38.795Z,15.16
2018-11-12T10:11:08.873Z,15.01
2018-11-12T10:13:39.169Z,15.18
2018-11-12T10:16:10.142Z,15.04
2018-11-12T10:18:37.766Z,15.22
2018-11-12T10:21:07.589Z,15.19
2018-11-12T10:23:37.324Z,15.25
2018-11-12T10:26:08.274Z,15.17
2018-11-12T10:28:38.599Z,15.23
2018-11-12T10:31:08.610Z,4.36
2018-11-12T10:33:38.007Z,15.39
2018-11-12T10:36:07.876Z,15.36
2018-11-12T10:38:37.434Z,15.26
2018-11-12T10:41:07.183Z,15.31
2018-11-12T10:43:41.146Z,15.47
2018-11-12T10:46:12.610Z,15.28
2018-11-12T10:48:43.186Z,15.33
2018-11-12T10:51:13.229Z,15.28
2018-11-12T10:53:50.041Z,15.21
2018-11-12T10:56:12.927Z,15.03
2018-11-12T10:58:42.947Z,15.19
2018-11-12T11:01:17.068Z,15.16
2018-11-12T11:03:47.073Z,15.06
2018-11-12T11:06:16.389Z,15.22
2018-11-12T11:08:45.668Z,15.21
2018-11-12T11:11:15.900Z,15.82
2018-11-12T11:13:47.154Z,15.17
2018-11-12T11:16:18.037Z,15.46
2018-11-12T11:18:47.783Z,15.28
2018-11-12T11:21:18.546Z,15.35
2018-11-12T11:23:47.792Z,15.27
2018-11-12T11:26:18.151Z,15.19
2018-11-12T11:28:47.326Z,15.30
2018-11-12T11:31:18.396Z,15.28
2018-11-12T11:33:58.132Z,15.46
2018-11-12T11:36:26.961Z,15.41
2018-11-12T11:38:58.981Z,15.77
2018-11-12T11:41:28.019Z,15.75
2018-11-12T11:43:58.576Z,15.64
2018-11-12T11:46:29.623Z,15.72
2018-11-12T11:49:00.411Z,15.66
2018-11-12T11:51:34.750Z,15.54
2018-11-12T11:54:04.423Z,15.59
2018-11-12T11:56:33.192Z,15.54
2018-11-12T11:59:02.955Z,15.83
2018-11-12T12:01:33.523Z,15.86
2018-11-12T12:04:03.280Z,15.98
2018-11-12T12:06:32.731Z,15.56
2018-11-12T12:09:02.336Z,15.50
2018-11-12T12:11:33.172Z,15.38
2018-11-12T12:14:03.972Z,15.66
2018-11-12T12:16:33.680Z,15.73
2018-11-12T12:19:03.689Z,15.47
2018-11-12T12:21:34.615Z,15.55
2018-11-12T12:24:04.064Z,15.65
2018-11-12T12:26:33.874Z,15.56
2018-11-12T12:29:03.907Z,15.69
2018-11-12T12:31:33.366Z,15.85
2018-11-12T12:34:03.457Z,15.78
2018-11-12T12:36:34.557Z,15.74
2018-11-12T12:39:03.375Z,15.79
2018-11-12T12:41:32.175Z,15.95
2018-11-12T12:44:01.707Z,15.92
2018-11-12T12:46:33.356Z,15.98
2018-11-12T12:49:04.139Z,16.05
2018-11-12T12:51:33.825Z,15.93
2018-11-12T12:54:04.273Z,16.04
2018-11-12T12:56:34.902Z,15.89
2018-11-12T12:59:05.457Z,15.92
2018-11-12T13:01:34.053Z,16.12
2018-11-12T13:04:06.586Z,16.07
2018-11-12T13:06:37.699Z,15.97
2018-11-12T13:09:09.196Z,16.00
2018-11-12T13:11:39.158Z,16.21
2018-11-12T13:14:09.075Z,16.45
2018-11-12T13:16:38.883Z,17.40
2018-11-12T13:19:08.408Z,17.35
2018-11-12T13:21:37.024Z,17.41
2018-11-12T13:24:07.660Z,17.22
2018-11-12T13:26:38.775Z,17.22
2018-11-12T13:29:10.144Z,17.11
2018-11-12T13:31:41.866Z,17.10
2018-11-12T13:34:12.524Z,16.98
2018-11-12T13:36:41.776Z,17.39
2018-11-12T13:39:12.985Z,17.99
2018-11-12T13:41:42.370Z,17.89
2018-11-12T13:44:11.198Z,18.00
2018-11-12T13:46:45.421Z,18.53
2018-11-12T13:49:16.180Z,7.71
2018-11-12T13:51:45.903Z,18.28
2018-11-12T13:54:15.312Z,18.74
2018-11-12T13:56:45.030Z,19.43
2018-11-12T13:59:14.428Z,18.88
2018-11-12T14:01:42.985Z,18.73
2018-11-12T14:04:13.021Z,18.70
2018-11-12T14:06:44.119Z,19.07
2018-11-12T14:09:13.818Z,19.20
2018-11-12T14:11:45.732Z,19.34
2018-11-12T14:14:15.005Z,18.72
2018-11-12T14:16:44.302Z,19.18
2018-11-12T14:19:15.652Z,19.14
2018-11-12T14:21:46.513Z,19.16
2018-11-12T14:24:16.667Z,19.10
2018-11-12T14:26:46.376Z,19.57
2018-11-12T14:29:17.832Z,19.13
2018-11-12T14:31:48.156Z,18.76
2018-11-12T14:34:17.296Z,19.03
2018-11-12T14:36:47.901Z,19.33
2018-11-12T14:39:19.927Z,19.60
2018-11-12T14:41:50.192Z,20.26
2018-11-12T14:44:20.033Z,19.97
2018-11-12T14:46:49.087Z,21.34
2018-11-12T14:49:20.131Z,20.51
2018-11-12T14:51:48.713Z,20.79
2018-11-12T14:54:18.559Z,20.79
2018-11-12T14:56:48.879Z,21.38
2018-11-12T14:59:18.863Z,21.47
2018-11-12T15:01:49.062Z,21.28
2018-11-12T15:04:18.706Z,20.02
2018-11-12T15:06:48.734Z,20.04
2018-11-12T15:09:17.640Z,20.75
2018-11-12T15:11:46.858Z,20.80
2018-11-12T15:14:16.983Z,20.19
2018-11-12T15:16:52.999Z,19.88
2018-11-12T15:19:23.041Z,20.12
2018-11-12T15:21:52.908Z,20.42
2018-11-12T15:24:22.962Z,19.83
2018-11-12T15:26:52.351Z,20.44
2018-11-12T15:29:22.316Z,20.33
2018-11-12T15:31:52.868Z,19.68
2018-11-12T15:34:22.409Z,19.44
2018-11-12T15:36:52.168Z,18.98
2018-11-12T15:39:23.884Z,19.45
2018-11-12T15:41:53.607Z,19.39
2018-11-12T15:44:22.750Z,18.46
2018-11-12T15:46:52.084Z,18.90
2018-11-12T15:49:26.008Z,19.12
2018-11-12T15:51:55.212Z,19.26
2018-11-12T15:54:25.252Z,18.35
2018-11-12T15:56:54.817Z,18.57
2018-11-12T15:59:24.339Z,17.76
2018-11-12T16:01:53.920Z,18.00
2018-11-12T16:04:23.993Z,17.57
2018-11-12T16:06:52.553Z,17.29
2018-11-12T16:09:22.397Z,17.48
2018-11-12T16:11:52.301Z,17.31
2018-11-12T16:14:22.215Z,16.90
2018-11-12T16:16:52.022Z,16.89
2018-11-12T16:19:20.972Z,16.69
2018-11-12T16:21:49.911Z,16.71
2018-11-12T16:24:20.843Z,16.52
2018-11-12T16:26:50.578Z,16.52
2018-11-12T16:29:36.736Z,16.59
2018-11-12T16:32:05.845Z,16.47
2018-11-12T16:34:35.318Z,16.39
2018-11-12T16:37:04.980Z,16.21
2018-11-12T16:39:36.112Z,16.20
2018-11-12T16:42:08.045Z,16.03
2018-11-12T16:44:38.700Z,16.11
2018-11-12T16:47:09.645Z,16.03
2018-11-12T16:49:40.075Z,16.02
2018-11-12T16:52:11.266Z,15.93
2018-11-12T16:54:42.213Z,15.91
2018-11-12T16:57:11.037Z,15.84
2018-11-12T16:59:42.226Z,15.93
2018-11-12T17:02:11.650Z,15.86
2018-11-12T17:04:42.486Z,15.69
2018-11-12T17:07:11.804Z,15.92
2018-11-12T17:09:43.652Z,15.78
2018-11-12T17:12:13.685Z,15.84
2018-11-12T17:14:43.160Z,15.80
2018-11-12T17:17:12.761Z,15.73
2018-11-12T17:19:43.736Z,15.95
2018-11-12T17:22:13.384Z,15.79
2018-11-12T17:24:44.206Z,15.68
2018-11-12T17:27:14.025Z,15.76
2018-11-12T17:29:44.311Z,15.64
2018-11-12T17:32:16.243Z,15.70
2018-11-12T17:34:46.548Z,15.79
2018-11-12T17:37:17.025Z,15.65
2018-11-12T17:39:47.588Z,15.33
2018-11-12T17:42:17.671Z,16.03
2018-11-12T17:44:48.159Z,15.89
2018-11-12T17:47:18.456Z,15.72
2018-11-12T17:49:48.264Z,15.59
2018-11-12T17:52:17.588Z,15.37
2018-11-12T17:54:47.750Z,15.70
2018-11-12T17:57:20.307Z,15.94
2018-11-12T17:59:50.009Z,15.77
2018-11-12T18:02:19.932Z,15.63
2018-11-12T18:04:50.985Z,15.41
2018-11-12T18:07:21.113Z,15.46
2018-11-12T18:09:50.221Z,15.27
2018-11-12T18:12:20.267Z,13.00
2018-11-12T18:14:50.896Z,15.32
2018-11-12T18:17:20.860Z,15.23
2018-11-12T18:19:50.816Z,15.33
2018-11-12T18:22:20.352Z,15.34
2018-11-12T18:24:50.375Z,15.53
2018-11-12T18:27:21.424Z,15.31
2018-11-12T18:29:51.096Z,15.33
2018-11-12T18:32:19.703Z,15.45
2018-11-12T18:34:49.210Z,15.53
2018-11-12T18:37:18.057Z,15.53
2018-11-12T18:39:48.265Z,15.57
2018-11-12T18:42:18.092Z,15.49
2018-11-12T18:44:48.544Z,14.85
2018-11-12T18:47:18.088Z,15.29
2018-11-12T18:49:47.303Z,15.34
2018-11-12T18:52:16.961Z,15.41
2018-11-12T18:54:46.717Z,15.26
2018-11-12T18:57:16.799Z,15.17
2018-11-12T18:59:45.826Z,15.19
2018-11-12T19:02:15.245Z,15.38
2018-11-12T19:04:46.357Z,15.22
2018-11-12T19:07:16.608Z,15.15
2018-11-12T19:09:45.677Z,15.13
2018-11-12T19:12:15.108Z,15.11
2018-11-12T19:14:44.519Z,15.07
2018-11-12T19:17:14.655Z,4.13
2018-11-12T19:19:43.228Z,15.08
2018-11-12T19:22:13.308Z,15.14
2018-11-12T19:24:42.525Z,15.01
2018-11-12T19:27:11.922Z,14.92
2018-11-12T19:29:44.788Z,14.94
2018-11-12T19:32:13.335Z,15.04
2018-11-12T19:34:43.664Z,15.11
2018-11-12T19:37:12.960Z,14.90
2018-11-12T19:39:42.745Z,14.95
2018-11-12T19:42:12.435Z,15.11
2018-11-12T19:44:43.354Z,15.02
2018-11-12T19:47:13.600Z,15.01
2018-11-12T19:49:44.277Z,14.79
2018-11-12T19:52:14.151Z,15.07
2018-11-12T19:54:43.591Z,15.20
2018-11-12T19:57:13.624Z,15.02
2018-11-12T19:59:43.912Z,14.97
2018-11-12T20:02:16.938Z,14.73
2018-11-12T20:04:47.154Z,14.84
2018-11-12T20:07:23.584Z,14.80
2018-11-12T20:09:54.700Z,14.85
2018-11-12T20:12:23.307Z,14.75
2018-11-12T20:14:53.804Z,14.73
2018-11-12T20:17:23.211Z,14.60
2018-11-12T20:19:52.788Z,14.51
2018-11-12T20:22:24.469Z,14.45
2018-11-12T20:24:53.584Z,14.47
2018-11-12T20:27:22.635Z,14.33
2018-11-12T20:29:54.065Z,14.43
2018-11-12T20:32:24.632Z,14.25
2018-11-12T20:34:53.820Z,14.40
2018-11-12T20:37:23.835Z,11.82
2018-11-12T20:39:56.330Z,14.17
2018-11-12T20:42:26.323Z,14.05
2018-11-12T20:44:57.035Z,14.39
2018-11-12T20:47:26.170Z,14.48
2018-11-12T20:49:57.056Z,14.36
2018-11-12T20:52:26.924Z,14.59
2018-11-12T20:54:57.224Z,12.56
2018-11-12T20:57:26.423Z,14.66
2018-11-12T20:59:56.451Z,14.86
2018-11-12T21:02:26.386Z,14.69
2018-11-12T21:04:57.554Z,14.57
2018-11-12T21:07:27.387Z,14.39
2018-11-12T21:09:57.929Z,14.21
2018-11-12T21:12:26.505Z,14.39
2018-11-12T21:14:56.622Z,14.43
2018-11-12T21:17:25.211Z,14.63
2018-11-12T21:19:54.412Z,14.53
2018-11-12T21:22:24.104Z,14.44
2018-11-12T21:24:54.249Z,14.36
2018-11-12T21:27:23.483Z,14.31
2018-11-12T21:29:53.712Z,14.58
2018-11-12T21:32:22.653Z,14.32
2018-11-12T21:34:51.929Z,14.39
2018-11-12T21:37:31.362Z,14.24
2018-11-12T21:40:01.153Z,14.37
2018-11-12T21:42:31.220Z,14.42
2018-11-12T21:45:01.871Z,14.32
2018-11-12T21:47:31.520Z,14.27
2018-11-12T21:50:01.087Z,14.27
2018-11-12T21:52:32.458Z,14.25
2018-11-12T21:55:02.563Z,14.20
2018-11-12T21:57:33.236Z,14.30
2018-11-12T22:00:03.951Z,14.37
2018-11-12T22:02:33.396Z,14.31
2018-11-12T22:05:06.054Z,14.13
2018-11-12T22:07:35.870Z,14.17
2018-11-12T22:10:04.965Z,14.22
2018-11-12T22:12:35.694Z,14.22
2018-11-12T22:15:05.615Z,14.43
2018-11-12T22:17:35.412Z,14.41
2018-11-12T22:20:07.133Z,14.09
2018-11-12T22:22:39.375Z,14.06
2018-11-12T22:25:09.864Z,13.98
2018-11-12T22:27:40.952Z,13.77
2018-11-12T22:30:12.064Z,13.84
2018-11-12T22:32:42.100Z,13.78
2018-11-12T22:35:11.373Z,13.79
2018-11-12T22:37:43.152Z,14.01
2018-11-12T22:40:12.764Z,13.88
2018-11-12T22:42:44.228Z,10.50
2018-11-12T22:45:15.722Z,13.99
2018-11-12T22:47:45.602Z,13.81
2018-11-12T22:50:14.456Z,13.97
2018-11-12T22:52:45.133Z,14.06
2018-11-12T22:55:15.631Z,13.94
2018-11-12T22:57:44.660Z,14.20
2018-11-12T23:00:36.217Z,14.31
2018-11-12T23:03:07.191Z,14.11
2018-11-12T23:05:36.766Z,13.95
2018-11-12T23:08:05.964Z,14.00
2018-11-12T23:10:36.383Z,14.13
2018-11-12T23:13:05.605Z,14.44
2018-11-12T23:15:35.776Z,14.25
2018-11-12T23:18:06.103Z,14.40
2018-11-12T23:20:41.956Z,14.43
2018-11-12T23:23:12.567Z,14.20
2018-11-12T23:25:42.308Z,14.59
2018-11-12T23:28:13.864Z,14.35
2018-11-12T23:30:44.689Z,14.41
2018-11-12T23:33:15.232Z,14.43
2018-11-12T23:35:45.346Z,14.51
2018-11-12T23:38:14.382Z,14.48
2018-11-12T23:40:44.447Z,14.48
2018-11-12T23:43:13.978Z,14.25
2018-11-12T23:45:42.788Z,14.51
2018-11-12T23:48:12.463Z,14.28
2018-11-12T23:50:42.117Z,14.28
2018-11-12T23:53:11.020Z,14.33
2018-11-12T23:55:43.264Z,14.54
2018-11-12T23:58:12.515Z,14.31
